Hirzenhain Airport EDFI

Flugplatz Daten

Name: Hirzenhain Airport

Ident: EDFI

Lat: 50,78777695

Long: 8,392778397

Platzhöhe: 1706 ft

IataCode:

City: Hirzenhain

Metar

2018/03/06 13:00
CYUT 061300Z 06005KT 050V120 15SM BKN040 M20/M23 A3056 RMK SC7 -18.1/-21.5/0.0/8.0 SNW CVR/MEDFIUM PACK SLP352

Taf

Gewünschte Webcam nicht vorhanden? Dann fügen Sie eine hinzu. Sie wird dann so schnell wie möglich freigeschaltet
Url: Title: